sensor_id;sensor_type;location;lat;lon;timestamp;pressure;altitude;pressure_sealevel;temperature;humidity
30516;BME280;17297;54.022;10.760;2023-06-22T00:01:02;101892.25;;;22.29;54.05
30516;BME280;17297;54.022;10.760;2023-06-22T00:03:28;101888.91;;;22.27;54.34
30516;BME280;17297;54.022;10.760;2023-06-22T00:05:53;101892.19;;;22.24;54.12
30516;BME280;17297;54.022;10.760;2023-06-22T00:08:19;101893.22;;;22.23;54.41
30516;BME280;17297;54.022;10.760;2023-06-22T00:10:45;101903.63;;;22.21;54.30
30516;BME280;17297;54.022;10.760;2023-06-22T00:13:11;101902.19;;;22.19;54.04
30516;BME280;17297;54.022;10.760;2023-06-22T00:15:38;101900.78;;;22.16;54.16
30516;BME280;17297;54.022;10.760;2023-06-22T00:18:08;101904.78;;;22.13;54.40
30516;BME280;17297;54.022;10.760;2023-06-22T00:20:33;101913.25;;;22.12;54.46
30516;BME280;17297;54.022;10.760;2023-06-22T00:23:01;101913.75;;;22.09;54.32
30516;BME280;17297;54.022;10.760;2023-06-22T00:25:28;101918.63;;;22.07;54.37
30516;BME280;17297;54.022;10.760;2023-06-22T00:27:53;101916.13;;;22.05;54.68
30516;BME280;17297;54.022;10.760;2023-06-22T00:30:19;101922.69;;;22.04;54.55
30516;BME280;17297;54.022;10.760;2023-06-22T00:32:45;101907.81;;;22.00;54.62
30516;BME280;17297;54.022;10.760;2023-06-22T00:35:13;101908.84;;;21.99;54.82
30516;BME280;17297;54.022;10.760;2023-06-22T00:37:39;101900.06;;;21.97;54.64
30516;BME280;17297;54.022;10.760;2023-06-22T00:40:09;101907.69;;;21.95;54.76
30516;BME280;17297;54.022;10.760;2023-06-22T00:42:36;101913.41;;;21.94;54.90
30516;BME280;17297;54.022;10.760;2023-06-22T00:45:03;101923.78;;;21.91;54.78
30516;BME280;17297;54.022;10.760;2023-06-22T00:47:28;101923.16;;;21.89;54.86
30516;BME280;17297;54.022;10.760;2023-06-22T00:49:54;101924.72;;;21.85;55.07
30516;BME280;17297;54.022;10.760;2023-06-22T00:52:21;101923.31;;;21.83;54.74
30516;BME280;17297;54.022;10.760;2023-06-22T00:54:48;101921.88;;;21.80;54.91
30516;BME280;17297;54.022;10.760;2023-06-22T00:57:14;101924.03;;;21.78;55.14
30516;BME280;17297;54.022;10.760;2023-06-22T00:59:44;101924.50;;;21.75;55.43
30516;BME280;17297;54.022;10.760;2023-06-22T01:02:13;101917.59;;;21.73;55.52
30516;BME280;17297;54.022;10.760;2023-06-22T01:04:39;101921.16;;;21.73;55.41
30516;BME280;17297;54.022;10.760;2023-06-22T01:07:20;101919.16;;;21.68;55.35
30516;BME280;17297;54.022;10.760;2023-06-22T01:12:20;101915.22;;;21.64;55.08
30516;BME280;17297;54.022;10.760;2023-06-22T01:14:52;101917.59;;;21.61;55.25
30516;BME280;17297;54.022;10.760;2023-06-22T01:17:19;101926.91;;;21.60;55.46
30516;BME280;17297;54.022;10.760;2023-06-22T01:19:47;101925.47;;;21.57;55.55
30516;BME280;17297;54.022;10.760;2023-06-22T01:22:19;101922.38;;;21.54;55.42
30516;BME280;17297;54.022;10.760;2023-06-22T01:24:57;101923.66;;;21.51;55.27
30516;BME280;17297;54.022;10.760;2023-06-22T01:30:27;101930.09;;;21.45;55.54
30516;BME280;17297;54.022;10.760;2023-06-22T01:32:57;101933.91;;;21.44;55.85
30516;BME280;17297;54.022;10.760;2023-06-22T01:35:24;101939.38;;;21.44;55.73
30516;BME280;17297;54.022;10.760;2023-06-22T01:37:50;101933.31;;;21.42;55.56
30516;BME280;17297;54.022;10.760;2023-06-22T01:40:18;101929.97;;;21.40;55.62
30516;BME280;17297;54.022;10.760;2023-06-22T01:42:44;101929.75;;;21.41;55.89
30516;BME280;17297;54.022;10.760;2023-06-22T01:45:11;101922.59;;;21.40;55.86
30516;BME280;17297;54.022;10.760;2023-06-22T01:47:38;101917.34;;;21.39;56.02
30516;BME280;17297;54.022;10.760;2023-06-22T01:50:04;101922.00;;;21.38;56.16
30516;BME280;17297;54.022;10.760;2023-06-22T01:52:32;101917.59;;;21.37;55.99
30516;BME280;17297;54.022;10.760;2023-06-22T01:54:59;101917.59;;;21.37;56.27
30516;BME280;17297;54.022;10.760;2023-06-22T01:57:25;101916.75;;;21.37;56.03
30516;BME280;17297;54.022;10.760;2023-06-22T02:00:00;101912.56;;;21.34;56.20
30516;BME280;17297;54.022;10.760;2023-06-22T02:02:30;101914.25;;;21.35;55.98
30516;BME280;17297;54.022;10.760;2023-06-22T02:04:59;101913.63;;;21.33;56.12
30516;BME280;17297;54.022;10.760;2023-06-22T02:07:32;101922.09;;;21.32;56.09
30516;BME280;17297;54.022;10.760;2023-06-22T02:10:02;101920.41;;;21.31;56.19
30516;BME280;17297;54.022;10.760;2023-06-22T02:12:31;101925.28;;;21.29;56.34
30516;BME280;17297;54.022;10.760;2023-06-22T02:14:57;101933.97;;;21.26;56.36
30516;BME280;17297;54.022;10.760;2023-06-22T02:17:23;101925.75;;;21.26;56.47
30516;BME280;17297;54.022;10.760;2023-06-22T02:19:49;101924.31;;;21.23;56.18
30516;BME280;17297;54.022;10.760;2023-06-22T02:22:15;101930.88;;;21.22;56.27
30516;BME280;17297;54.022;10.760;2023-06-22T02:24:43;101928.38;;;21.20;56.58
30516;BME280;17297;54.022;10.760;2023-06-22T02:27:08;101923.72;;;21.21;56.81
30516;BME280;17297;54.022;10.760;2023-06-22T02:29:34;101922.06;;;21.20;56.42
30516;BME280;17297;54.022;10.760;2023-06-22T02:32:01;101928.38;;;21.20;56.55
30516;BME280;17297;54.022;10.760;2023-06-22T02:34:26;101925.88;;;21.19;56.60
30516;BME280;17297;54.022;10.760;2023-06-22T02:36:52;101923.97;;;21.19;56.50
30516;BME280;17297;54.022;10.760;2023-06-22T02:39:21;101925.28;;;21.17;56.66
30516;BME280;17297;54.022;10.760;2023-06-22T02:41:49;101934.56;;;21.16;56.76
30516;BME280;17297;54.022;10.760;2023-06-22T02:44:15;101934.56;;;21.16;56.96
30516;BME280;17297;54.022;10.760;2023-06-22T02:46:40;101936.47;;;21.15;56.89
30516;BME280;17297;54.022;10.760;2023-06-22T02:49:06;101942.97;;;21.14;56.97
30516;BME280;17297;54.022;10.760;2023-06-22T02:51:33;101930.38;;;21.13;56.80
30516;BME280;17297;54.022;10.760;2023-06-22T02:54:00;101931.22;;;21.14;57.24
30516;BME280;17297;54.022;10.760;2023-06-22T02:56:28;101921.56;;;21.11;57.24
30516;BME280;17297;54.022;10.760;2023-06-22T02:58:58;101921.56;;;21.11;57.22
30516;BME280;17297;54.022;10.760;2023-06-22T03:01:27;101919.91;;;21.10;57.21
30516;BME280;17297;54.022;10.760;2023-06-22T03:03:53;101917.19;;;21.10;57.19
30516;BME280;17297;54.022;10.760;2023-06-22T03:06:20;101918.00;;;21.11;57.27
30516;BME280;17297;54.022;10.760;2023-06-22T03:08:49;101918.84;;;21.11;57.08
30516;BME280;17297;54.022;10.760;2023-06-22T03:11:15;101921.56;;;21.11;56.99
30516;BME280;17297;54.022;10.760;2023-06-22T03:13:41;101924.31;;;21.11;57.47
30516;BME280;17297;54.022;10.760;2023-06-22T03:16:06;101922.41;;;21.12;57.20
30516;BME280;17297;54.022;10.760;2023-06-22T03:18:31;101929.56;;;21.13;57.27
30516;BME280;17297;54.022;10.760;2023-06-22T03:20:57;101923.47;;;21.11;57.62
30516;BME280;17297;54.022;10.760;2023-06-22T03:23:23;101919.91;;;21.10;57.25
30516;BME280;17297;54.022;10.760;2023-06-22T03:25:48;101927.88;;;21.12;57.48
30516;BME280;17297;54.022;10.760;2023-06-22T03:28:14;101934.19;;;21.12;57.16
30516;BME280;17297;54.022;10.760;2023-06-22T03:30:40;101937.75;;;21.13;57.61
30516;BME280;17297;54.022;10.760;2023-06-22T03:33:05;101935.03;;;21.13;57.46
30516;BME280;17297;54.022;10.760;2023-06-22T03:35:33;101930.38;;;21.13;57.73
30516;BME280;17297;54.022;10.760;2023-06-22T03:37:58;101940.25;;;21.14;57.42
30516;BME280;17297;54.022;10.760;2023-06-22T03:40:23;101940.25;;;21.14;57.77
30516;BME280;17297;54.022;10.760;2023-06-22T03:42:50;101943.81;;;21.15;57.40
30516;BME280;17297;54.022;10.760;2023-06-22T03:45:15;101952.88;;;21.15;57.64
30516;BME280;17297;54.022;10.760;2023-06-22T03:47:41;101950.97;;;21.16;57.97
30516;BME280;17297;54.022;10.760;2023-06-22T03:50:06;101945.50;;;21.16;57.82
30516;BME280;17297;54.022;10.760;2023-06-22T03:52:32;101951.81;;;21.16;57.91
30516;BME280;17297;54.022;10.760;2023-06-22T03:54:57;101952.63;;;21.17;57.86
30516;BME280;17297;54.022;10.760;2023-06-22T03:57:23;101952.63;;;21.17;57.50
30516;BME280;17297;54.022;10.760;2023-06-22T03:59:48;101958.94;;;21.17;57.86
30516;BME280;17297;54.022;10.760;2023-06-22T04:02:13;101951.81;;;21.16;57.63
30516;BME280;17297;54.022;10.760;2023-06-22T04:04:39;101960.63;;;21.18;57.77
30516;BME280;17297;54.022;10.760;2023-06-22T04:07:05;101955.16;;;21.18;57.96
30516;BME280;17297;54.022;10.760;2023-06-22T04:09:30;101959.28;;;21.21;58.06
30516;BME280;17297;54.022;10.760;2023-06-22T04:11:55;101956.34;;;21.22;57.76
30516;BME280;17297;54.022;10.760;2023-06-22T04:14:21;101952.31;;;21.25;57.80
30516;BME280;17297;54.022;10.760;2023-06-22T04:16:46;101963.00;;;21.27;58.00
30516;BME280;17297;54.022;10.760;2023-06-22T04:19:11;101958.34;;;21.27;58.09
30516;BME280;17297;54.022;10.760;2023-06-22T04:21:42;101972.88;;;21.28;57.88
30516;BME280;17297;54.022;10.760;2023-06-22T04:24:09;101975.13;;;21.31;57.90
30516;BME280;17297;54.022;10.760;2023-06-22T04:26:35;101976.34;;;21.35;58.25
30516;BME280;17297;54.022;10.760;2023-06-22T04:29:02;101970.66;;;21.36;58.08
30516;BME280;17297;54.022;10.760;2023-06-22T04:31:31;101977.81;;;21.37;58.10
30516;BME280;17297;54.022;10.760;2023-06-22T04:33:57;101978.41;;;21.39;58.19
30516;BME280;17297;54.022;10.760;2023-06-22T04:36:31;101974.97;;;21.44;58.31
30516;BME280;17297;54.022;10.760;2023-06-22T04:39:02;101976.16;;;21.48;58.35
30516;BME280;17297;54.022;10.760;2023-06-22T04:41:28;101968.91;;;21.54;58.32
30516;BME280;17297;54.022;10.760;2023-06-22T04:43:53;101970.44;;;21.61;58.25
30516;BME280;17297;54.022;10.760;2023-06-22T04:46:19;101972.25;;;21.67;58.05
30516;BME280;17297;54.022;10.760;2023-06-22T04:48:44;101971.06;;;21.75;58.04
30516;BME280;17297;54.022;10.760;2023-06-22T04:51:10;101976.91;;;21.79;57.92
30516;BME280;17297;54.022;10.760;2023-06-22T04:53:35;101981.06;;;21.81;58.31
30516;BME280;17297;54.022;10.760;2023-06-22T04:56:01;101982.50;;;21.84;58.08
30516;BME280;17297;54.022;10.760;2023-06-22T04:58:29;101981.41;;;21.85;58.25
30516;BME280;17297;54.022;10.760;2023-06-22T05:00:57;101973.81;;;21.87;58.27
30516;BME280;17297;54.022;10.760;2023-06-22T05:03:25;101983.69;;;21.88;58.16
30516;BME280;17297;54.022;10.760;2023-06-22T05:05:52;101978.22;;;21.88;58.04
30516;BME280;17297;54.022;10.760;2023-06-22T05:08:17;101976.06;;;21.90;58.14
30516;BME280;17297;54.022;10.760;2023-06-22T05:10:43;101981.56;;;21.90;58.11
30516;BME280;17297;54.022;10.760;2023-06-22T05:13:08;101982.13;;;21.92;58.15
30516;BME280;17297;54.022;10.760;2023-06-22T05:15:34;101976.66;;;21.92;58.29
30516;BME280;17297;54.022;10.760;2023-06-22T05:18:05;101985.69;;;21.92;58.20
30516;BME280;17297;54.022;10.760;2023-06-22T05:20:30;101987.94;;;21.96;57.83
30516;BME280;17297;54.022;10.760;2023-06-22T05:22:56;101988.78;;;21.96;57.93
30516;BME280;17297;54.022;10.760;2023-06-22T05:25:21;101977.59;;;21.98;58.44
30516;BME280;17297;54.022;10.760;2023-06-22T05:27:46;101987.25;;;22.00;58.14
30516;BME280;17297;54.022;10.760;2023-06-22T05:30:12;101992.47;;;22.02;58.18
30516;BME280;17297;54.022;10.760;2023-06-22T05:32:37;101996.66;;;22.04;58.30
30516;BME280;17297;54.022;10.760;2023-06-22T05:35:03;102002.25;;;22.09;58.18
30516;BME280;17297;54.022;10.760;2023-06-22T05:37:29;101992.72;;;22.12;58.08
30516;BME280;17297;54.022;10.760;2023-06-22T05:39:54;101992.84;;;22.17;57.91
30516;BME280;17297;54.022;10.760;2023-06-22T05:42:21;101992.50;;;22.25;58.24
30516;BME280;17297;54.022;10.760;2023-06-22T05:44:46;102002.00;;;22.34;57.98
30516;BME280;17297;54.022;10.760;2023-06-22T05:47:12;101994.59;;;22.47;58.15
30516;BME280;17297;54.022;10.760;2023-06-22T05:49:37;101999.19;;;22.58;57.81
30516;BME280;17297;54.022;10.760;2023-06-22T05:52:03;102001.56;;;22.66;57.50
30516;BME280;17297;54.022;10.760;2023-06-22T05:54:29;102002.50;;;22.72;57.56
30516;BME280;17297;54.022;10.760;2023-06-22T05:56:54;102002.84;;;22.75;57.59
30516;BME280;17297;54.022;10.760;2023-06-22T05:59:19;102003.44;;;22.77;57.39
30516;BME280;17297;54.022;10.760;2023-06-22T06:01:45;102007.59;;;22.80;57.56
30516;BME280;17297;54.022;10.760;2023-06-22T06:04:15;102006.53;;;22.81;57.21
30516;BME280;17297;54.022;10.760;2023-06-22T06:06:41;101998.31;;;22.81;57.16
30516;BME280;17297;54.022;10.760;2023-06-22T06:09:06;102006.53;;;22.81;57.36
30516;BME280;17297;54.022;10.760;2023-06-22T06:11:33;102005.69;;;22.80;57.48
30516;BME280;17297;54.022;10.760;2023-06-22T06:13:58;102008.44;;;22.80;57.11
30516;BME280;17297;54.022;10.760;2023-06-22T06:16:23;102014.97;;;22.79;57.31
30516;BME280;17297;54.022;10.760;2023-06-22T06:18:49;102011.41;;;22.79;57.04
30516;BME280;17297;54.022;10.760;2023-06-22T06:21:16;102013.34;;;22.78;57.03
30516;BME280;17297;54.022;10.760;2023-06-22T06:23:41;102006.75;;;22.79;57.12
30516;BME280;17297;54.022;10.760;2023-06-22T06:26:07;101999.97;;;22.82;56.82
30516;BME280;17297;54.022;10.760;2023-06-22T06:28:33;101986.56;;;22.86;56.82
30516;BME280;17297;54.022;10.760;2023-06-22T06:30:59;101980.59;;;22.89;56.49
30516;BME280;17297;54.022;10.760;2023-06-22T06:33:24;101990.53;;;22.90;56.25
30516;BME280;17297;54.022;10.760;2023-06-22T06:35:49;101984.44;;;22.88;55.86
30516;BME280;17297;54.022;10.760;2023-06-22T06:38:15;101981.09;;;22.86;56.07
30516;BME280;17297;54.022;10.760;2023-06-22T06:40:40;101992.31;;;22.84;56.05
30516;BME280;17297;54.022;10.760;2023-06-22T06:43:06;101987.91;;;22.83;56.05
30516;BME280;17297;54.022;10.760;2023-06-22T06:45:31;101991.25;;;22.85;55.82
30516;BME280;17297;54.022;10.760;2023-06-22T06:47:59;101991.84;;;22.87;55.50
30516;BME280;17297;54.022;10.760;2023-06-22T06:50:24;101995.41;;;22.88;55.62
30516;BME280;17297;54.022;10.760;2023-06-22T06:52:50;101990.25;;;22.91;55.70
30516;BME280;17297;54.022;10.760;2023-06-22T06:55:15;101999.19;;;22.98;55.36
30516;BME280;17297;54.022;10.760;2023-06-22T06:57:41;102000.13;;;23.04;55.48
30516;BME280;17297;54.022;10.760;2023-06-22T07:00:09;101991.91;;;23.04;55.65
30516;BME280;17297;54.022;10.760;2023-06-22T07:02:38;102001.56;;;23.07;55.74
30516;BME280;17297;54.022;10.760;2023-06-22T07:05:04;101998.06;;;23.11;55.44
30516;BME280;17297;54.022;10.760;2023-06-22T07:07:29;101997.06;;;23.17;55.34
30516;BME280;17297;54.022;10.760;2023-06-22T07:09:55;102001.84;;;23.22;55.42
30516;BME280;17297;54.022;10.760;2023-06-22T07:12:20;102002.41;;;23.24;54.86
30516;BME280;17297;54.022;10.760;2023-06-22T07:14:46;102001.34;;;23.25;54.77
30516;BME280;17297;54.022;10.760;2023-06-22T07:17:11;101995.34;;;23.28;54.67
30516;BME280;17297;54.022;10.760;2023-06-22T07:19:36;101998.94;;;23.28;54.54
30516;BME280;17297;54.022;10.760;2023-06-22T07:22:02;101998.94;;;23.28;54.77
30516;BME280;17297;54.022;10.760;2023-06-22T07:24:27;101998.16;;;23.33;54.80
30516;BME280;17297;54.022;10.760;2023-06-22T07:26:53;101996.59;;;23.37;54.68
30516;BME280;17297;54.022;10.760;2023-06-22T07:29:19;102002.16;;;23.42;54.84
30516;BME280;17297;54.022;10.760;2023-06-22T07:31:48;102001.66;;;23.45;54.52
30516;BME280;17297;54.022;10.760;2023-06-22T07:34:15;101999.50;;;23.47;54.48
30516;BME280;17297;54.022;10.760;2023-06-22T07:36:40;102005.09;;;23.52;54.80
30516;BME280;17297;54.022;10.760;2023-06-22T07:39:06;101993.34;;;23.57;54.75
30516;BME280;17297;54.022;10.760;2023-06-22T07:41:31;101995.38;;;23.62;54.65
30516;BME280;17297;54.022;10.760;2023-06-22T07:43:57;102002.25;;;23.64;54.31
30516;BME280;17297;54.022;10.760;2023-06-22T07:46:23;102000.94;;;23.67;54.17
30516;BME280;17297;54.022;10.760;2023-06-22T07:48:48;102003.19;;;23.70;53.91
30516;BME280;17297;54.022;10.760;2023-06-22T07:51:14;102006.28;;;23.73;54.03
30516;BME280;17297;54.022;10.760;2023-06-22T07:53:43;102003.28;;;23.75;53.83
30516;BME280;17297;54.022;10.760;2023-06-22T07:56:12;102000.28;;;23.77;53.63
30516;BME280;17297;54.022;10.760;2023-06-22T07:58:38;102004.72;;;23.78;53.43
30516;BME280;17297;54.022;10.760;2023-06-22T08:01:03;101997.28;;;23.78;53.08
30516;BME280;17297;54.022;10.760;2023-06-22T08:03:29;101997.28;;;23.78;52.91
30516;BME280;17297;54.022;10.760;2023-06-22T08:05:55;102000.88;;;23.79;52.60
30516;BME280;17297;54.022;10.760;2023-06-22T08:08:20;102000.03;;;23.78;52.60
30516;BME280;17297;54.022;10.760;2023-06-22T08:10:45;101999.72;;;23.74;52.25
30516;BME280;17297;54.022;10.760;2023-06-22T08:13:11;102002.13;;;23.71;52.64
30516;BME280;17297;54.022;10.760;2023-06-22T08:15:36;102007.25;;;23.67;52.50
30516;BME280;17297;54.022;10.760;2023-06-22T08:18:01;102004.50;;;23.67;52.98
30516;BME280;17297;54.022;10.760;2023-06-22T08:20:27;102016.34;;;23.68;52.76
30516;BME280;17297;54.022;10.760;2023-06-22T08:22:53;102005.34;;;23.68;53.03
30516;BME280;17297;54.022;10.760;2023-06-22T08:25:19;102007.88;;;23.69;52.57
30516;BME280;17297;54.022;10.760;2023-06-22T08:27:46;102006.28;;;23.73;52.47
30516;BME280;17297;54.022;10.760;2023-06-22T08:30:12;102006.63;;;23.77;52.47
30516;BME280;17297;54.022;10.760;2023-06-22T08:32:38;102005.88;;;23.82;52.60
30516;BME280;17297;54.022;10.760;2023-06-22T08:35:04;102010.84;;;23.85;52.30
30516;BME280;17297;54.022;10.760;2023-06-22T08:37:31;102021.34;;;23.88;52.49
30516;BME280;17297;54.022;10.760;2023-06-22T08:40:04;102019.19;;;23.90;52.54
30516;BME280;17297;54.022;10.760;2023-06-22T08:42:30;102024.19;;;23.93;52.87
30516;BME280;17297;54.022;10.760;2023-06-22T08:44:57;102020.06;;;23.95;52.23
30516;BME280;17297;54.022;10.760;2023-06-22T08:47:22;102026.44;;;23.96;51.95
30516;BME280;17297;54.022;10.760;2023-06-22T08:49:48;102011.31;;;23.98;51.37
30516;BME280;17297;54.022;10.760;2023-06-22T08:52:13;102015.50;;;24.01;51.56
30516;BME280;17297;54.022;10.760;2023-06-22T08:54:39;102008.44;;;24.05;51.62
30516;BME280;17297;54.022;10.760;2023-06-22T08:57:05;101999.91;;;24.07;51.67
30516;BME280;17297;54.022;10.760;2023-06-22T08:59:30;101996.94;;;24.08;51.23
30516;BME280;17297;54.022;10.760;2023-06-22T09:01:56;101998.56;;;24.09;51.33
30516;BME280;17297;54.022;10.760;2023-06-22T09:04:22;101990.34;;;24.09;51.49
30516;BME280;17297;54.022;10.760;2023-06-22T09:06:48;101991.75;;;24.12;51.21
30516;BME280;17297;54.022;10.760;2023-06-22T09:09:15;101991.25;;;24.15;51.35
30516;BME280;17297;54.022;10.760;2023-06-22T09:11:41;101994.53;;;24.17;50.52
30516;BME280;17297;54.022;10.760;2023-06-22T09:14:06;101990.47;;;24.19;51.26
30516;BME280;17297;54.022;10.760;2023-06-22T09:16:32;101983.63;;;24.22;50.63
30516;BME280;17297;54.022;10.760;2023-06-22T09:18:57;101989.72;;;24.24;51.13
30516;BME280;17297;54.022;10.760;2023-06-22T09:21:23;101986.38;;;24.22;50.27
30516;BME280;17297;54.022;10.760;2023-06-22T09:23:48;101984.22;;;24.24;50.35
30516;BME280;17297;54.022;10.760;2023-06-22T09:26:17;101984.78;;;24.26;50.28
30516;BME280;17297;54.022;10.760;2023-06-22T09:28:42;101982.34;;;24.30;50.07
30516;BME280;17297;54.022;10.760;2023-06-22T09:31:07;101982.69;;;24.33;49.68
30516;BME280;17297;54.022;10.760;2023-06-22T09:33:33;101980.25;;;24.37;50.01
30516;BME280;17297;54.022;10.760;2023-06-22T09:35:58;101984.16;;;24.41;49.54
30516;BME280;17297;54.022;10.760;2023-06-22T09:38:25;101972.66;;;24.44;49.21
30516;BME280;17297;54.022;10.760;2023-06-22T09:40:50;101960.31;;;24.47;48.86
30516;BME280;17297;54.022;10.760;2023-06-22T09:43:16;101979.56;;;24.47;48.64
30516;BME280;17297;54.022;10.760;2023-06-22T09:45:42;101967.47;;;24.48;48.82
30516;BME280;17297;54.022;10.760;2023-06-22T09:48:08;101970.22;;;24.48;49.09
30516;BME280;17297;54.022;10.760;2023-06-22T09:50:35;101964.50;;;24.49;49.55
30516;BME280;17297;54.022;10.760;2023-06-22T09:53:00;101963.16;;;24.52;48.86
30516;BME280;17297;54.022;10.760;2023-06-22T09:55:26;101966.44;;;24.54;49.04
30516;BME280;17297;54.022;10.760;2023-06-22T09:57:51;101975.53;;;24.54;48.89
30516;BME280;17297;54.022;10.760;2023-06-22T10:00:17;101968.09;;;24.55;48.61
30516;BME280;17297;54.022;10.760;2023-06-22T10:02:45;101970.31;;;24.53;48.67
30516;BME280;17297;54.022;10.760;2023-06-22T10:05:11;101960.06;;;24.48;48.71
30516;BME280;17297;54.022;10.760;2023-06-22T10:07:36;101955.66;;;24.47;48.57
30516;BME280;17297;54.022;10.760;2023-06-22T10:10:08;101960.31;;;24.47;48.50
30516;BME280;17297;54.022;10.760;2023-06-22T10:12:33;101955.94;;;24.46;48.23
30516;BME280;17297;54.022;10.760;2023-06-22T10:14:58;101955.94;;;24.46;48.51
30516;BME280;17297;54.022;10.760;2023-06-22T10:17:24;101947.69;;;24.46;48.71
30516;BME280;17297;54.022;10.760;2023-06-22T10:19:49;101944.91;;;24.46;49.11
30516;BME280;17297;54.022;10.760;2023-06-22T10:22:14;101952.31;;;24.45;48.52
30516;BME280;17297;54.022;10.760;2023-06-22T10:24:40;101951.75;;;24.43;49.26
30516;BME280;17297;54.022;10.760;2023-06-22T10:27:10;101939.41;;;24.46;48.96
30516;BME280;17297;54.022;10.760;2023-06-22T10:29:36;101950.44;;;24.46;48.58
30516;BME280;17297;54.022;10.760;2023-06-22T10:32:01;101944.91;;;24.46;49.62
30516;BME280;17297;54.022;10.760;2023-06-22T10:34:27;101932.56;;;24.48;49.62
30516;BME280;17297;54.022;10.760;2023-06-22T10:36:52;101943.91;;;24.52;49.84
30516;BME280;17297;54.022;10.760;2023-06-22T10:39:18;101943.63;;;24.53;49.97
30516;BME280;17297;54.022;10.760;2023-06-22T10:41:43;101938.44;;;24.57;49.41
30516;BME280;17297;54.022;10.760;2023-06-22T10:44:09;101942.31;;;24.61;49.81
30516;BME280;17297;54.022;10.760;2023-06-22T10:46:34;101932.47;;;24.65;49.73
30516;BME280;17297;54.022;10.760;2023-06-22T10:49:00;101936.13;;;24.71;50.00
30516;BME280;17297;54.022;10.760;2023-06-22T10:51:25;101936.16;;;24.76;49.94
30516;BME280;17297;54.022;10.760;2023-06-22T10:53:51;101931.53;;;24.81;49.61
30516;BME280;17297;54.022;10.760;2023-06-22T10:56:17;101929.91;;;24.85;50.21
30516;BME280;17297;54.022;10.760;2023-06-22T10:58:44;101932.16;;;24.88;49.86
30516;BME280;17297;54.022;10.760;2023-06-22T11:01:10;101932.16;;;24.88;49.83
30516;BME280;17297;54.022;10.760;2023-06-22T11:03:35;101923.06;;;24.88;50.17
30516;BME280;17297;54.022;10.760;2023-06-22T11:06:01;101925.00;;;24.87;49.58
30516;BME280;17297;54.022;10.760;2023-06-22T11:08:26;101930.50;;;24.87;49.54
30516;BME280;17297;54.022;10.760;2023-06-22T11:10:51;101923.91;;;24.88;49.99
30516;BME280;17297;54.022;10.760;2023-06-22T11:13:17;101926.13;;;24.92;50.15
30516;BME280;17297;54.022;10.760;2023-06-22T11:15:43;101924.53;;;24.96;50.50
30516;BME280;17297;54.022;10.760;2023-06-22T11:18:08;101919.03;;;24.96;50.74
30516;BME280;17297;54.022;10.760;2023-06-22T11:20:34;101914.34;;;24.96;50.93
30516;BME280;17297;54.022;10.760;2023-06-22T11:23:04;101906.34;;;24.95;50.52
30516;BME280;17297;54.022;10.760;2023-06-22T11:25:29;101909.63;;;24.92;51.27
30516;BME280;17297;54.022;10.760;2023-06-22T11:27:54;101897.53;;;24.93;50.82
30516;BME280;17297;54.022;10.760;2023-06-22T11:30:20;101911.03;;;24.94;51.09
30516;BME280;17297;54.022;10.760;2023-06-22T11:32:45;101904.69;;;24.94;51.09
30516;BME280;17297;54.022;10.760;2023-06-22T11:35:11;101904.16;;;24.97;51.36
30516;BME280;17297;54.022;10.760;2023-06-22T11:37:36;101909.16;;;25.00;50.89
30516;BME280;17297;54.022;10.760;2023-06-22T11:40:02;101895.69;;;25.03;50.86
30516;BME280;17297;54.022;10.760;2023-06-22T11:42:30;101893.22;;;25.02;50.91
30516;BME280;17297;54.022;10.760;2023-06-22T11:44:55;101893.22;;;25.02;51.31
30516;BME280;17297;54.022;10.760;2023-06-22T11:47:21;101885.19;;;25.00;50.63
30516;BME280;17297;54.022;10.760;2023-06-22T11:49:46;101887.38;;;24.98;51.22
30516;BME280;17297;54.022;10.760;2023-06-22T11:52:12;101891.22;;;24.97;51.53
30516;BME280;17297;54.022;10.760;2023-06-22T11:54:37;101892.56;;;24.95;51.84
30516;BME280;17297;54.022;10.760;2023-06-22T11:57:04;101893.38;;;24.90;52.72
30516;BME280;17297;54.022;10.760;2023-06-22T11:59:29;101890.31;;;24.86;52.67
30516;BME280;17297;54.022;10.760;2023-06-22T12:01:54;101884.75;;;24.81;52.22
30516;BME280;17297;54.022;10.760;2023-06-22T12:04:20;101885.81;;;24.75;52.34
30516;BME280;17297;54.022;10.760;2023-06-22T12:06:46;101888.50;;;24.70;52.64
30516;BME280;17297;54.022;10.760;2023-06-22T12:09:11;101888.47;;;24.65;53.09
30516;BME280;17297;54.022;10.760;2023-06-22T12:11:38;101895.84;;;24.59;53.37
30516;BME280;17297;54.022;10.760;2023-06-22T12:14:04;101885.59;;;24.55;54.11
30516;BME280;17297;54.022;10.760;2023-06-22T12:16:29;101893.53;;;24.51;54.38
30516;BME280;17297;54.022;10.760;2023-06-22T12:18:55;101882.22;;;24.48;55.11
30516;BME280;17297;54.022;10.760;2023-06-22T12:21:20;101881.91;;;24.44;55.78
30516;BME280;17297;54.022;10.760;2023-06-22T12:23:46;101878.00;;;24.40;55.10
30516;BME280;17297;54.022;10.760;2023-06-22T12:26:11;101877.94;;;24.35;54.59
30516;BME280;17297;54.022;10.760;2023-06-22T12:28:36;101868.28;;;24.32;54.95
30516;BME280;17297;54.022;10.760;2023-06-22T12:31:02;101866.88;;;24.30;55.90
30516;BME280;17297;54.022;10.760;2023-06-22T12:33:27;101871.28;;;24.31;55.35
30516;BME280;17297;54.022;10.760;2023-06-22T12:35:53;101863.56;;;24.28;55.40
30516;BME280;17297;54.022;10.760;2023-06-22T12:38:18;101871.50;;;24.24;54.87
30516;BME280;17297;54.022;10.760;2023-06-22T12:40:43;101864.31;;;24.23;55.65